createdAt,value
2022-11-01T00:18:42.761Z,69.7
2022-11-01T00:38:42.719Z,66.9
2022-11-01T00:58:42.673Z,67.3
2022-11-01T01:18:42.640Z,68.4
2022-11-01T01:38:42.593Z,70.3
2022-11-01T01:58:42.565Z,71.4
2022-11-01T02:18:42.511Z,72.1
2022-11-01T02:38:42.479Z,73.2
2022-11-01T03:18:42.399Z,73.3
2022-11-01T03:38:42.359Z,75.1
2022-11-01T03:58:42.323Z,76
2022-11-01T04:18:42.276Z,76.7
2022-11-01T04:38:42.265Z,77.4
2022-11-01T04:58:43.219Z,77.9
2022-11-01T05:18:42.164Z,76.8
2022-11-01T05:38:42.128Z,75.6
2022-11-01T05:58:42.097Z,74
2022-11-01T06:18:42.036Z,75.9
2022-11-01T06:38:41.999Z,74.3
2022-11-01T06:58:41.953Z,68.6
2022-11-01T07:38:41.878Z,67.4
2022-11-01T07:58:41.837Z,62.6
2022-11-01T08:18:41.809Z,60.7
2022-11-01T08:38:41.770Z,60.9
2022-11-01T08:58:41.710Z,57.6
2022-11-01T09:18:41.737Z,57
2022-11-01T09:38:41.651Z,55
2022-11-01T09:58:41.605Z,53.9
2022-11-01T10:18:41.556Z,52.6
2022-11-01T10:39:10.641Z,53
2022-11-01T10:58:41.512Z,52
2022-11-01T11:18:41.451Z,51.1
2022-11-01T11:38:41.399Z,51
2022-11-01T11:58:41.368Z,51.1
2022-11-01T12:18:41.314Z,51
2022-11-01T12:58:41.264Z,50.6
2022-11-01T13:38:41.158Z,51.5
2022-11-01T13:58:41.120Z,51.7
2022-11-01T14:18:41.072Z,52.5
2022-11-01T14:38:41.044Z,52
2022-11-01T14:58:40.992Z,51.9
2022-11-01T15:18:40.953Z,52.6
2022-11-01T15:38:40.920Z,54.8
2022-11-01T15:58:40.879Z,56.5
2022-11-01T16:18:40.873Z,59.1
2022-11-01T16:38:40.832Z,59.2
2022-11-01T16:58:40.760Z,58.5
2022-11-01T17:38:40.677Z,58.3
2022-11-01T17:58:40.646Z,59.3
2022-11-01T18:18:40.616Z,59.4
2022-11-01T18:38:40.563Z,60.5
2022-11-01T18:58:40.577Z,62.1
2022-11-01T19:18:42.271Z,63.8
2022-11-01T19:38:40.452Z,65.1
2022-11-01T19:58:42.062Z,66.6
